Time;durP1;ratioP1;P1;durP2;ratioP2;P2;SDS_P1;SDS_P2;PMS_P1;PMS_P2;Temp;Humidity;BMP_temperature;BMP_pressure;BME280_temperature;BME280_humidity;BME280_pressure;Samples;Min_cycle;Max_cycle;Signal;HPM_P1;HPM_P2
2023/04/10 00:00:15;;;;;;;7.93;6.73;;;13.10;1.00;;;;;;5092475;28;20669;-73
2023/04/10 00:02:41;;;;;;;8.80;7.00;;;13.10;1.00;;;;;;5093057;28;20211;-73
2023/04/10 00:05:10;;;;;;;7.97;7.13;;;13.00;1.00;;;;;;5092820;28;20163;-72
2023/04/10 00:07:35;;;;;;;10.73;7.23;;;13.00;1.00;;;;;;5093006;28;20251;-73
2023/04/10 00:10:01;;;;;;;7.70;6.90;;;12.90;9.60;;;;;;5092944;28;20255;-72
2023/04/10 00:12:30;;;;;;;10.33;7.53;;;12.90;54.20;;;;;;5091270;28;20176;-73
2023/04/10 00:14:55;;;;;;;12.33;7.60;;;12.80;95.90;;;;;;5092427;28;20531;-73
2023/04/10 00:17:21;;;;;;;9.90;7.43;;;12.80;99.90;;;;;;5093067;28;20168;-73
2023/04/10 00:19:52;;;;;;;9.67;7.37;;;12.70;99.90;;;;;;5092680;28;20649;-73
2023/04/10 00:22:20;;;;;;;9.47;7.13;;;12.60;99.90;;;;;;5092695;28;20235;-72
2023/04/10 00:24:46;;;;;;;8.10;6.90;;;12.50;99.90;;;;;;5092449;28;20610;-72
2023/04/10 00:27:11;;;;;;;8.20;7.40;;;12.50;1.00;;;;;;5091512;28;20248;-72
2023/04/10 00:29:37;;;;;;;11.40;7.50;;;12.40;1.00;;;;;;5092228;28;20167;-72
2023/04/10 00:32:03;;;;;;;8.63;7.83;;;12.30;1.00;;;;;;5092856;28;20682;-72
2023/04/10 00:34:31;;;;;;;9.20;7.60;;;12.10;1.00;;;;;;5092492;28;20176;-72
2023/04/10 00:36:58;;;;;;;9.27;8.37;;;12.00;1.00;;;;;;5092293;28;20180;-71
2023/04/10 00:39:24;;;;;;;8.63;7.73;;;12.00;1.00;;;;;;5092541;28;20218;-72
2023/04/10 00:41:52;;;;;;;9.13;8.20;;;11.90;1.00;;;;;;5092561;28;20698;-71
2023/04/10 00:44:18;;;;;;;9.93;7.70;;;11.80;1.00;;;;;;5092245;28;20195;-71
2023/04/10 00:46:44;;;;;;;9.50;8.50;;;11.80;1.00;;;;;;5092276;28;20176;-72
2023/04/10 00:49:09;;;;;;;9.50;8.03;;;11.80;1.00;;;;;;5092551;28;20207;-71
2023/04/10 00:51:36;;;;;;;8.73;7.83;;;11.70;1.00;;;;;;5094377;28;20214;-72
2023/04/10 00:54:03;;;;;;;9.20;8.27;;;11.70;1.00;;;;;;5096040;28;20191;-73
2023/04/10 00:56:32;;;;;;;10.33;8.60;;;11.60;1.00;;;;;;5096021;28;20171;-72
2023/04/10 00:58:57;;;;;;;8.40;7.60;;;11.60;1.00;;;;;;5095817;28;20172;-72
2023/04/10 01:01:23;;;;;;;8.33;7.40;;;11.60;1.00;;;;;;5095918;28;20290;-73
2023/04/10 01:03:49;;;;;;;9.80;8.27;;;11.60;1.00;;;;;;5095897;28;20187;-72
2023/04/10 01:06:41;;;;;;;9.30;7.93;;;11.50;1.00;;;;;;5095745;28;20168;-72
2023/04/10 01:09:34;;;;;;;9.37;8.40;;;11.50;1.00;;;;;;5095713;28;20520;-72
2023/04/10 01:12:23;;;;;;;9.33;7.60;;;11.40;1.00;;;;;;5095618;28;20174;-73
2023/04/10 01:15:17;;;;;;;8.50;7.70;;;11.40;1.00;;;;;;5095569;28;20618;-72
2023/04/10 01:17:56;;;;;;;8.77;7.87;;;11.40;1.00;;;;;;5087350;28;20192;-72
2023/04/10 01:20:23;;;;;;;8.20;7.37;;;11.40;1.00;;;;;;5095676;28;20168;-72
2023/04/10 01:23:25;;;;;;;10.30;7.50;;;11.40;1.00;;;;;;5095600;28;20212;-72
2023/04/10 01:26:03;;;;;;;8.57;7.77;;;11.40;1.00;;;;;;5095180;28;20242;-72
2023/04/10 01:28:50;;;;;;;7.80;7.07;;;11.40;1.00;;;;;;5095327;28;20160;-72
2023/04/10 01:31:22;;;;;;;8.10;6.93;;;11.40;1.00;;;;;;5095213;28;20160;-71
2023/04/10 01:33:52;;;;;;;7.80;7.10;;;11.40;1.00;;;;;;5095696;28;20274;-72
2023/04/10 01:36:27;;;;;;;7.13;6.33;;;11.40;1.00;;;;;;5095117;28;20172;-72
2023/04/10 01:38:56;;;;;;;8.83;7.43;;;11.40;1.00;;;;;;5094988;28;20284;-72
2023/04/10 01:41:23;;;;;;;7.67;6.97;;;11.40;1.00;;;;;;5093443;28;20203;-72
2023/04/10 01:43:53;;;;;;;9.67;6.83;;;11.40;1.00;;;;;;5095264;28;20195;-72
2023/04/10 01:46:20;;;;;;;7.63;6.93;;;11.50;1.00;;;;;;5095033;28;20318;-72
2023/04/10 01:48:48;;;;;;;7.20;6.50;;;11.40;1.00;;;;;;5095193;28;20167;-71
2023/04/10 01:51:14;;;;;;;6.50;5.90;;;11.40;1.00;;;;;;5094994;28;20598;-72
2023/04/10 01:53:44;;;;;;;7.60;6.47;;;11.40;1.00;;;;;;5095576;28;20171;-72
2023/04/10 01:56:11;;;;;;;7.27;6.40;;;11.40;1.00;;;;;;5094598;28;20164;-72
2023/04/10 01:58:37;;;;;;;7.30;6.50;;;11.30;1.00;;;;;;5093787;28;20168;-73
2023/04/10 02:01:03;;;;;;;7.07;6.33;;;11.30;1.00;;;;;;5094522;28;20259;-72
2023/04/10 02:03:28;;;;;;;7.70;6.83;;;11.30;1.00;;;;;;5094915;28;20529;-72
2023/04/10 02:06:11;;;;;;;7.47;6.37;;;11.30;1.00;;;;;;5094628;28;20187;-71
2023/04/10 02:08:42;;;;;;;6.87;6.27;;;11.20;1.00;;;;;;5094928;28;20168;-72
2023/04/10 02:11:23;;;;;;;7.00;6.30;;;11.20;1.00;;;;;;5094310;28;20187;-72
2023/04/10 02:13:52;;;;;;;6.53;5.93;;;11.20;1.00;;;;;;5094935;28;20171;-72
2023/04/10 02:16:20;;;;;;;6.97;6.33;;;11.20;1.00;;;;;;5094214;28;20174;-72
2023/04/10 02:18:50;;;;;;;6.50;6.00;;;11.20;1.00;;;;;;5093392;28;20176;-72
2023/04/10 02:21:16;;;;;;;6.97;6.30;;;11.20;1.00;;;;;;5094412;28;20161;-72
2023/04/10 02:23:45;;;;;;;7.07;6.37;;;11.20;1.00;;;;;;5094740;28;20172;-72
2023/04/10 02:26:10;;;;;;;7.17;6.47;;;11.30;1.00;;;;;;5093876;28;20647;-71
2023/04/10 02:28:39;;;;;;;6.70;6.10;;;11.30;1.00;;;;;;5094431;28;20171;-72
2023/04/10 02:31:05;;;;;;;6.57;5.93;;;11.30;99.90;;;;;;5094283;28;20160;-71
2023/04/10 02:33:31;;;;;;;6.43;5.93;;;11.30;99.90;;;;;;5094668;28;20203;-71
2023/04/10 02:35:57;;;;;;;6.70;6.10;;;11.30;99.90;;;;;;5093950;28;20218;-71
2023/04/10 02:38:22;;;;;;;6.40;5.90;;;11.40;99.90;;;;;;5094391;28;20235;-71
2023/04/10 02:40:49;;;;;;;7.07;6.47;;;11.40;99.90;;;;;;5093670;28;20172;-71
2023/04/10 02:43:14;;;;;;;6.50;6.00;;;11.40;99.90;;;;;;5094095;28;20217;-71
2023/04/10 02:45:40;;;;;;;6.50;5.97;;;11.40;99.90;;;;;;5094130;28;20252;-72
2023/04/10 02:48:06;;;;;;;7.27;6.23;;;11.30;99.90;;;;;;5092994;28;20225;-71
2023/04/10 02:50:32;;;;;;;6.37;5.87;;;11.30;99.90;;;;;;5093938;28;20180;-71
2023/04/10 02:52:57;;;;;;;6.27;5.77;;;11.30;99.90;;;;;;5094157;28;20172;-72
2023/04/10 02:55:23;;;;;;;6.63;6.03;;;11.30;99.90;;;;;;5093265;28;20271;-72
2023/04/10 02:57:48;;;;;;;7.53;5.40;;;11.30;99.90;;;;;;5094126;28;20184;-71
2023/04/10 03:00:15;;;;;;;6.33;5.83;;;11.20;99.90;;;;;;5093911;28;20171;-71
2023/04/10 03:02:40;;;;;;;6.13;5.57;;;11.30;99.90;;;;;;5093649;28;20567;-71
2023/04/10 03:05:07;;;;;;;5.80;5.30;;;11.30;99.90;;;;;;5093701;28;20169;-71
2023/04/10 03:07:33;;;;;;;6.60;6.00;;;11.30;99.90;;;;;;5093601;28;20281;-71
2023/04/10 03:09:59;;;;;;;6.00;5.50;;;11.20;99.90;;;;;;5093413;28;20167;-72
2023/04/10 03:12:27;;;;;;;7.40;5.87;;;11.30;99.90;;;;;;5093579;28;20185;-71
2023/04/10 03:14:53;;;;;;;5.90;5.47;;;11.30;99.90;;;;;;5093032;28;20350;-71
2023/04/10 03:17:19;;;;;;;6.10;5.50;;;11.30;99.90;;;;;;5093323;28;20265;-72
2023/04/10 03:19:44;;;;;;;5.93;5.43;;;11.20;99.90;;;;;;5093526;28;20171;-72
2023/04/10 03:22:10;;;;;;;5.40;4.90;;;11.30;78.90;;;;;;5093158;28;20218;-72
2023/04/10 03:24:37;;;;;;;5.50;5.10;;;11.40;1.00;;;;;;5092120;28;20172;-72
2023/04/10 03:27:02;;;;;;;5.97;5.47;;;11.40;1.00;;;;;;5093174;28;20249;-71
2023/04/10 03:29:31;;;;;;;6.43;5.83;;;11.30;1.00;;;;;;5092097;28;20192;-72
2023/04/10 03:32:00;;;;;;;6.60;5.63;;;11.30;99.90;;;;;;5092999;28;20172;-72
2023/04/10 03:34:25;;;;;;;6.53;5.80;;;11.30;1.00;;;;;;5093251;28;20248;-72
2023/04/10 03:36:51;;;;;;;6.13;5.57;;;11.30;99.90;;;;;;5092823;28;20214;-72
2023/04/10 03:39:16;;;;;;;5.60;5.20;;;11.30;43.70;;;;;;5091743;28;20216;-71
2023/04/10 03:41:42;;;;;;;6.37;5.77;;;11.30;1.00;;;;;;5092671;28;20270;-71
2023/04/10 03:44:08;;;;;;;5.70;5.20;;;11.20;99.90;;;;;;5092996;28;20188;-71
2023/04/10 03:46:36;;;;;;;6.03;5.57;;;11.20;99.90;;;;;;5092825;28;20250;-71
2023/04/10 03:49:02;;;;;;;6.03;5.53;;;11.10;99.90;;;;;;5092713;28;20702;-72
2023/04/10 03:51:27;;;;;;;5.83;5.30;;;11.10;99.90;;;;;;5091205;28;20259;-71
2023/04/10 03:53:56;;;;;;;8.03;5.70;;;11.10;99.90;;;;;;5093043;28;20704;-72
2023/04/10 03:56:21;;;;;;;7.03;5.60;;;11.10;99.90;;;;;;5092697;28;20164;-71
2023/04/10 03:58:47;;;;;;;6.37;5.77;;;11.10;99.90;;;;;;5091743;28;20172;-72
2023/04/10 04:01:13;;;;;;;6.20;5.60;;;11.10;99.90;;;;;;5092638;28;20850;-72
2023/04/10 04:03:41;;;;;;;6.03;5.50;;;11.00;99.90;;;;;;5092727;28;20179;-71
2023/04/10 04:06:07;;;;;;;6.20;5.70;;;10.90;99.90;;;;;;5091821;28;20243;-72
2023/04/10 04:08:35;;;;;;;6.47;5.80;;;10.80;99.90;;;;;;5092823;28;20629;-72
2023/04/10 04:11:00;;;;;;;6.67;6.07;;;10.80;99.90;;;;;;5092707;28;20225;-72
2023/04/10 04:13:29;;;;;;;6.17;5.60;;;10.80;99.90;;;;;;5092716;28;20639;-72
2023/04/10 04:15:54;;;;;;;6.63;6.03;;;10.80;99.90;;;;;;5092763;28;20168;-71
2023/04/10 04:18:20;;;;;;;5.97;5.47;;;10.80;99.90;;;;;;5092782;28;20175;-72
2023/04/10 04:20:46;;;;;;;6.70;6.00;;;10.80;99.90;;;;;;5092148;28;20160;-71
2023/04/10 04:23:11;;;;;;;6.47;5.87;;;10.80;99.90;;;;;;5092355;28;20211;-72
2023/04/10 04:25:37;;;;;;;6.30;5.70;;;10.80;99.90;;;;;;5092875;28;20192;-71
2023/04/10 04:28:02;;;;;;;6.00;5.50;;;10.80;99.90;;;;;;5096554;28;20242;-71
2023/04/10 04:30:28;;;;;;;6.27;5.67;;;10.80;99.90;;;;;;5096639;28;20225;-72
2023/04/10 04:32:54;;;;;;;6.60;6.00;;;10.80;99.90;;;;;;5096365;28;20591;-72
2023/04/10 04:35:19;;;;;;;6.77;5.73;;;10.80;99.90;;;;;;5096247;28;20168;-72
2023/04/10 04:37:48;;;;;;;6.03;5.53;;;10.80;99.90;;;;;;5096044;28;20249;-72
2023/04/10 04:40:13;;;;;;;6.50;5.80;;;10.90;99.90;;;;;;5096385;28;20254;-72
2023/04/10 04:42:39;;;;;;;6.23;5.63;;;10.90;99.90;;;;;;5096068;28;20298;-71
2023/04/10 04:45:05;;;;;;;6.93;6.10;;;10.90;99.90;;;;;;5096311;28;20167;-71
2023/04/10 04:47:31;;;;;;;6.13;5.60;;;11.00;99.90;;;;;;5095928;28;20233;-72
2023/04/10 04:50:00;;;;;;;6.73;6.13;;;11.00;99.90;;;;;;5095856;28;20259;-71
2023/04/10 04:52:26;;;;;;;6.30;5.80;;;11.00;99.90;;;;;;5096064;28;20176;-71
2023/04/10 04:54:51;;;;;;;6.70;6.00;;;11.00;99.90;;;;;;5096255;28;20674;-71
2023/04/10 04:57:17;;;;;;;6.63;5.93;;;11.10;99.90;;;;;;5095463;28;20164;-71
2023/04/10 04:59:43;;;;;;;8.90;5.90;;;11.00;99.90;;;;;;5095739;28;20195;-72
2023/04/10 05:02:08;;;;;;;7.23;6.40;;;11.10;99.90;;;;;;5094571;28;20196;-72
2023/04/10 05:04:34;;;;;;;6.80;6.20;;;11.10;99.90;;;;;;5095178;28;20273;-71
2023/04/10 05:07:00;;;;;;;6.40;5.80;;;11.10;63.60;;;;;;5095344;28;20167;-72
2023/04/10 05:09:25;;;;;;;6.77;6.13;;;11.00;99.90;;;;;;5095762;28;20168;-71
2023/04/10 05:11:52;;;;;;;6.27;5.70;;;10.90;99.90;;;;;;5095332;28;20187;-71
2023/04/10 05:14:19;;;;;;;7.50;5.90;;;10.90;99.90;;;;;;5095797;28;20575;-72
2023/04/10 05:16:45;;;;;;;6.07;5.47;;;11.00;99.90;;;;;;5095361;28;20209;-71
2023/04/10 05:19:13;;;;;;;6.80;6.07;;;11.00;24.70;;;;;;5095320;28;20171;-71
2023/04/10 05:21:39;;;;;;;7.67;5.80;;;10.90;99.90;;;;;;5095311;28;20215;-71
2023/04/10 05:24:04;;;;;;;6.17;5.57;;;11.00;99.90;;;;;;5095574;28;20172;-71
2023/04/10 05:26:30;;;;;;;5.90;5.40;;;11.00;99.90;;;;;;5095409;28;20172;-72
2023/04/10 05:28:56;;;;;;;6.00;5.50;;;11.00;99.90;;;;;;5095402;28;20172;-71
2023/04/10 05:31:21;;;;;;;6.60;6.03;;;11.00;99.90;;;;;;5095530;28;20176;-72
2023/04/10 05:33:47;;;;;;;6.37;5.40;;;11.00;99.90;;;;;;5094709;28;20194;-72
2023/04/10 05:36:13;;;;;;;8.03;5.97;;;11.10;8.80;;;;;;5094979;28;20164;-72
2023/04/10 05:38:38;;;;;;;6.00;5.43;;;11.10;1.00;;;;;;5094551;28;20240;-72
2023/04/10 05:41:04;;;;;;;6.13;5.63;;;11.10;99.90;;;;;;5094890;28;20175;-72
2023/04/10 05:43:29;;;;;;;6.53;5.63;;;11.10;52.40;;;;;;5094951;28;20199;-71
2023/04/10 05:45:55;;;;;;;8.00;6.20;;;11.20;1.00;;;;;;5095050;28;20546;-71
2023/04/10 05:48:24;;;;;;;6.00;5.40;;;11.20;2.90;;;;;;5075963;28;20187;-71
2023/04/10 05:50:51;;;;;;;6.63;5.97;;;11.30;21.40;;;;;;5095131;28;20187;-72
2023/04/10 05:53:18;;;;;;;7.07;5.90;;;11.30;1.00;;;;;;5094567;28;20175;-72
2023/04/10 05:55:50;;;;;;;7.93;5.63;;;11.50;1.00;;;;;;5094862;28;20222;-72
2023/04/10 05:58:16;;;;;;;6.37;5.43;;;11.50;1.00;;;;;;5095025;28;20171;-71
2023/04/10 06:00:41;;;;;;;6.00;5.50;;;11.60;99.90;;;;;;5094618;28;20176;-72
2023/04/10 06:03:10;;;;;;;6.03;5.43;;;11.70;1.00;;;;;;5094517;28;20250;-72
2023/04/10 06:05:35;;;;;;;6.13;5.53;;;11.70;99.90;;;;;;5094500;28;20184;-72
2023/04/10 06:08:01;;;;;;;5.83;5.33;;;11.60;99.90;;;;;;5094570;28;20171;-71
2023/04/10 06:10:32;;;;;;;5.90;5.40;;;11.60;99.90;;;;;;5093188;28;20642;-72
2023/04/10 06:12:58;;;;;;;5.97;5.47;;;11.60;99.90;;;;;;5094277;28;20164;-71
2023/04/10 06:15:23;;;;;;;6.67;5.97;;;11.60;99.90;;;;;;5094554;28;20198;-71
2023/04/10 06:17:49;;;;;;;6.27;5.67;;;11.60;99.90;;;;;;5093837;28;20172;-72
2023/04/10 06:20:15;;;;;;;5.67;5.27;;;11.50;99.90;;;;;;5094053;28;20187;-72
2023/04/10 06:22:43;;;;;;;6.57;5.97;;;11.50;99.90;;;;;;5092930;28;20314;-72
2023/04/10 06:25:09;;;;;;;6.40;5.80;;;11.60;99.90;;;;;;5094032;28;20168;-72
2023/04/10 06:27:35;;;;;;;5.57;5.17;;;11.60;99.90;;;;;;5094190;28;20205;-72
2023/04/10 06:30:01;;;;;;;5.33;4.93;;;11.70;1.00;;;;;;5094286;28;20175;-73
2023/04/10 06:32:27;;;;;;;7.37;6.10;;;11.80;1.00;;;;;;5093870;28;20647;-72
2023/04/10 06:34:52;;;;;;;5.63;5.13;;;11.80;94.50;;;;;;5093937;28;20193;-72
2023/04/10 06:37:26;;;;;;;6.20;5.60;;;11.80;1.00;;;;;;5093841;28;20215;-72
2023/04/10 06:40:06;;;;;;;5.73;5.23;;;11.90;1.00;;;;;;5094244;28;20241;-72
2023/04/10 06:42:32;;;;;;;6.07;5.57;;;12.00;1.00;;;;;;5093379;28;20229;-72
2023/04/10 06:44:57;;;;;;;5.67;5.17;;;12.00;1.00;;;;;;5093947;28;20671;-72
2023/04/10 06:47:24;;;;;;;6.43;5.60;;;12.00;1.00;;;;;;5093423;28;20199;-72
2023/04/10 06:49:50;;;;;;;5.57;4.97;;;12.10;1.00;;;;;;5090921;28;20619;-72
2023/04/10 06:52:16;;;;;;;5.90;5.40;;;12.00;1.00;;;;;;5092456;28;20557;-72
2023/04/10 06:54:45;;;;;;;6.63;5.23;;;12.10;1.00;;;;;;5093256;28;20179;-72
2023/04/10 06:57:11;;;;;;;7.53;5.77;;;12.20;1.00;;;;;;5093489;28;20239;-73
2023/04/10 06:59:36;;;;;;;6.10;5.60;;;12.10;1.00;;;;;;5093261;28;20223;-72
2023/04/10 07:02:02;;;;;;;6.07;5.50;;;12.10;1.00;;;;;;5093249;28;20689;-72
2023/04/10 07:04:29;;;;;;;6.33;5.73;;;12.10;99.90;;;;;;5093167;28;20534;-72
2023/04/10 07:07:01;;;;;;;5.90;5.40;;;12.20;99.90;;;;;;5093636;28;20172;-72
2023/04/10 07:09:28;;;;;;;5.90;5.30;;;12.20;99.90;;;;;;5093275;28;20175;-73
2023/04/10 07:11:53;;;;;;;7.77;5.47;;;12.20;1.00;;;;;;5093396;28;20175;-72
2023/04/10 07:14:19;;;;;;;7.43;6.20;;;12.30;99.90;;;;;;5093134;28;20627;-73
2023/04/10 07:16:47;;;;;;;5.73;5.07;;;12.30;99.90;;;;;;5093153;28;20168;-73
2023/04/10 07:19:16;;;;;;;5.77;5.27;;;12.40;1.00;;;;;;5093279;28;20160;-73
2023/04/10 07:21:41;;;;;;;5.90;5.40;;;12.50;99.90;;;;;;5093034;28;20191;-73
2023/04/10 07:24:07;;;;;;;6.13;5.60;;;12.70;99.90;;;;;;5092708;28;20172;-74
2023/04/10 07:26:35;;;;;;;7.10;6.03;;;12.80;99.90;;;;;;5092917;28;20198;-73
2023/04/10 07:29:04;;;;;;;6.00;5.50;;;13.00;1.00;;;;;;5092199;28;20582;-74
2023/04/10 07:31:29;;;;;;;6.47;5.50;;;13.10;1.00;;;;;;5093177;28;20171;-72
2023/04/10 07:33:58;;;;;;;5.63;5.23;;;13.20;99.90;;;;;;5092616;28;20258;-73
2023/04/10 07:36:23;;;;;;;5.73;5.13;;;13.20;99.90;;;;;;5092834;28;20647;-73
2023/04/10 07:38:49;;;;;;;5.70;5.20;;;13.30;99.90;;;;;;5092180;28;20223;-72
2023/04/10 07:41:17;;;;;;;6.93;5.13;;;13.20;35.00;;;;;;5091409;28;20182;-73
2023/04/10 07:43:42;;;;;;;5.63;5.13;;;13.20;99.90;;;;;;5092648;28;20628;-73
2023/04/10 07:46:11;;;;;;;6.10;5.23;;;13.20;99.90;;;;;;5092663;28;20172;-73
2023/04/10 07:48:40;;;;;;;5.73;5.23;;;13.20;1.00;;;;;;5092812;28;20182;-72
2023/04/10 07:51:08;;;;;;;5.90;5.30;;;13.20;1.00;;;;;;5092869;28;20646;-72
2023/04/10 07:53:35;;;;;;;6.07;5.27;;;13.10;1.00;;;;;;5092894;28;20176;-73
2023/04/10 07:56:01;;;;;;;5.93;5.43;;;13.10;99.90;;;;;;5092786;28;20168;-74
2023/04/10 07:58:27;;;;;;;6.17;5.63;;;13.10;1.00;;;;;;5090585;28;20182;-73
2023/04/10 08:00:53;;;;;;;6.57;5.27;;;13.00;6.70;;;;;;5095280;28;20175;-73
2023/04/10 08:03:19;;;;;;;5.67;5.20;;;13.10;99.90;;;;;;5096420;28;20207;-73
2023/04/10 08:05:45;;;;;;;6.77;6.17;;;13.30;1.00;;;;;;5096569;28;20195;-73
2023/04/10 08:08:15;;;;;;;6.10;5.57;;;13.50;99.90;;;;;;5095384;28;20200;-73
2023/04/10 08:10:41;;;;;;;6.80;5.80;;;13.70;1.00;;;;;;5096714;28;20176;-73
2023/04/10 08:13:07;;;;;;;6.43;5.60;;;13.90;1.00;;;;;;5095013;28;20207;-73
2023/04/10 08:15:33;;;;;;;6.70;6.10;;;14.00;72.40;;;;;;5096470;28;20176;-73
2023/04/10 08:17:59;;;;;;;5.70;5.30;;;14.20;99.90;;;;;;5096848;28;20179;-74
2023/04/10 08:20:24;;;;;;;6.37;5.77;;;14.10;1.00;;;;;;5096351;28;20178;-74
2023/04/10 08:22:50;;;;;;;6.20;5.70;;;14.00;99.90;;;;;;5096624;28;20207;-73
2023/04/10 08:25:16;;;;;;;5.87;5.30;;;13.90;1.00;;;;;;5095879;28;20174;-73
2023/04/10 08:27:41;;;;;;;6.20;5.70;;;13.90;22.10;;;;;;5096047;28;20202;-73
2023/04/10 08:30:07;;;;;;;6.53;5.93;;;14.10;1.00;;;;;;5096213;28;20164;-74
2023/04/10 08:32:34;;;;;;;7.17;5.97;;;14.30;1.00;;;;;;5096485;28;20184;-74
2023/04/10 08:35:00;;;;;;;6.63;5.93;;;14.50;1.00;;;;;;5095987;28;20619;-74
2023/04/10 08:37:25;;;;;;;7.53;6.27;;;14.30;34.20;;;;;;5095870;28;20321;-74
2023/04/10 08:39:51;;;;;;;7.63;6.57;;;14.10;1.00;;;;;;5096294;28;20164;-73
2023/04/10 08:42:17;;;;;;;6.57;5.97;;;14.00;99.90;;;;;;5095848;28;20558;-73
2023/04/10 08:44:43;;;;;;;6.67;6.07;;;14.10;1.00;;;;;;5095552;28;20184;-73
2023/04/10 08:47:09;;;;;;;9.03;6.10;;;14.30;1.00;;;;;;5094576;28;20481;-74
2023/04/10 08:49:48;;;;;;;9.37;6.10;;;14.20;1.00;;;;;;5095577;28;20584;-73
2023/04/10 08:52:20;;;;;;;6.77;5.93;;;14.30;1.00;;;;;;5095796;28;20233;-73
2023/04/10 08:54:51;;;;;;;6.57;5.93;;;14.20;1.00;;;;;;5094356;28;20176;-74
2023/04/10 08:57:19;;;;;;;6.90;6.03;;;14.40;1.00;;;;;;5095494;28;20160;-74
2023/04/10 08:59:46;;;;;;;6.53;5.80;;;14.30;1.00;;;;;;5095007;28;20176;-74
2023/04/10 09:02:14;;;;;;;5.67;5.17;;;14.50;1.00;;;;;;5095653;28;20663;-73
2023/04/10 09:04:50;;;;;;;8.17;6.03;;;14.50;99.90;;;;;;5095239;28;20199;-74
2023/04/10 09:07:17;;;;;;;6.67;5.80;;;14.60;1.00;;;;;;5093869;28;20197;-73
2023/04/10 09:09:43;;;;;;;6.10;5.60;;;14.70;99.90;;;;;;5094970;28;20498;-74
2023/04/10 09:12:09;;;;;;;6.20;5.70;;;14.80;1.00;;;;;;5094088;28;20221;-74
2023/04/10 09:14:36;;;;;;;6.97;6.00;;;14.90;1.00;;;;;;5094922;28;20631;-73
2023/04/10 09:17:21;;;;;;;5.57;5.13;;;14.90;1.00;;;;;;5095509;28;20196;-74
2023/04/10 09:19:49;;;;;;;6.43;5.90;;;15.00;99.90;;;;;;5094843;28;20195;-74
2023/04/10 09:22:27;;;;;;;6.13;5.63;;;15.10;99.90;;;;;;5094926;28;20204;-73
2023/04/10 09:24:53;;;;;;;6.40;5.77;;;15.30;1.00;;;;;;5093576;28;20197;-74
2023/04/10 09:27:34;;;;;;;6.47;5.77;;;15.40;99.90;;;;;;5094784;28;20160;-73
2023/04/10 09:30:01;;;;;;;7.17;6.47;;;15.30;84.00;;;;;;5093769;28;20175;-73
2023/04/10 09:32:37;;;;;;;7.03;5.67;;;15.40;55.40;;;;;;5095148;28;20607;-74
2023/04/10 09:35:06;;;;;;;6.63;6.00;;;15.60;1.00;;;;;;5094916;28;20198;-74
2023/04/10 09:37:35;;;;;;;6.40;5.80;;;15.70;1.00;;;;;;5094724;28;20239;-73
2023/04/10 09:40:01;;;;;;;6.43;5.83;;;15.70;1.00;;;;;;5094562;28;20229;-74
2023/04/10 09:42:32;;;;;;;6.20;5.70;;;15.80;1.00;;;;;;5094934;28;20272;-73
2023/04/10 09:44:58;;;;;;;6.50;5.90;;;15.90;29.30;;;;;;5095028;28;20208;-74
2023/04/10 09:47:24;;;;;;;6.63;6.00;;;16.00;1.00;;;;;;5095107;28;20193;-73
2023/04/10 09:50:01;;;;;;;6.37;5.73;;;16.00;1.00;;;;;;5093896;28;20243;-73
2023/04/10 09:52:34;;;;;;;6.10;5.50;;;16.10;1.00;;;;;;5095049;28;20175;-74
2023/04/10 09:55:09;;;;;;;6.70;6.00;;;16.20;1.00;;;;;;5094382;28;20195;-73
2023/04/10 09:57:35;;;;;;;6.43;5.47;;;16.40;99.90;;;;;;5094385;28;20604;-74
2023/04/10 10:00:12;;;;;;;6.00;5.33;;;16.50;99.90;;;;;;5094175;28;20243;-74
2023/04/10 10:02:39;;;;;;;6.10;5.50;;;16.50;1.00;;;;;;5094618;28;20683;-74
2023/04/10 10:05:08;;;;;;;5.90;5.40;;;16.70;99.90;;;;;;5094330;28;20164;-74
2023/04/10 10:07:38;;;;;;;5.93;4.90;;;16.90;1.00;;;;;;5093288;28;20204;-74
2023/04/10 10:10:07;;;;;;;5.73;4.67;;;16.90;99.90;;;;;;5093622;28;20172;-75
2023/04/10 10:12:51;;;;;;;5.47;4.97;;;16.80;99.90;;;;;;5093278;28;20190;-74
2023/04/10 10:15:36;;;;;;;5.77;5.23;;;17.20;1.00;;;;;;5093923;28;20163;-74
2023/04/10 10:18:21;;;;;;;4.90;4.60;;;17.40;1.00;;;;;;5094522;28;20164;-74
2023/04/10 10:20:49;;;;;;;5.05;4.65;;;17.50;1.00;;;;;;5092621;28;20214;-74
2023/04/10 10:23:16;;;;;;;5.32;4.75;;;17.80;98.70;;;;;;5093537;28;20232;-73
2023/04/10 10:25:43;;;;;;;6.05;5.00;;;18.20;1.00;;;;;;5094011;28;20170;-74
2023/04/10 10:28:13;;;;;;;5.30;4.90;;;18.40;1.00;;;;;;5093905;28;20506;-74
2023/04/10 10:30:39;;;;;;;7.40;4.68;;;19.00;99.90;;;;;;5093693;28;20168;-74
2023/04/10 10:33:06;;;;;;;4.80;4.40;;;19.60;1.00;;;;;;5092696;28;20180;-73
2023/04/10 10:35:36;;;;;;;5.25;4.72;;;19.70;1.00;;;;;;5093810;28;20160;-73
2023/04/10 10:38:03;;;;;;;4.80;4.40;;;19.80;1.00;;;;;;5093571;28;20247;-75
2023/04/10 10:40:44;;;;;;;4.50;4.10;;;20.10;99.90;;;;;;5093492;28;20184;-74
2023/04/10 10:43:21;;;;;;;3.97;3.67;;;20.10;99.90;;;;;;5093644;28;20227;-74
2023/04/10 10:46:01;;;;;;;4.40;3.90;;;20.10;99.90;;;;;;5091912;28;20281;-74
2023/04/10 10:48:27;;;;;;;4.32;4.00;;;19.60;99.90;;;;;;5093436;28;20313;-73
2023/04/10 10:50:57;;;;;;;3.30;3.10;;;19.70;99.90;;;;;;5093221;28;20679;-73
2023/04/10 10:53:43;;;;;;;3.83;3.42;;;19.60;99.90;;;;;;5093282;28;20176;-74
2023/04/10 10:56:18;;;;;;;3.63;3.42;;;19.30;99.90;;;;;;5093472;28;20263;-73
2023/04/10 10:59:10;;;;;;;3.90;3.50;;;19.10;99.90;;;;;;5093624;28;20170;-72
2023/04/10 11:01:36;;;;;;;3.38;3.17;;;19.20;99.90;;;;;;5089735;28;20183;-73
2023/04/10 11:04:40;;;;;;;4.20;3.80;;;19.20;99.90;;;;;;5093619;28;20662;-73
2023/04/10 11:07:06;;;;;;;4.00;3.60;;;19.00;99.90;;;;;;5092498;28;20238;-75
2023/04/10 11:09:53;;;;;;;3.90;3.60;;;18.80;1.00;;;;;;5093721;28;20164;-74
2023/04/10 11:12:23;;;;;;;3.75;3.45;;;18.80;1.00;;;;;;5091196;28;20168;-75
2023/04/10 11:15:03;;;;;;;3.97;3.67;;;18.50;1.00;;;;;;5093637;28;20172;-74
2023/04/10 11:17:52;;;;;;;5.40;3.60;;;18.50;1.00;;;;;;5092941;28;20175;-74
2023/04/10 11:20:20;;;;;;;3.97;3.65;;;18.60;1.00;;;;;;5093221;28;20213;-74
2023/04/10 11:23:22;;;;;;;3.85;3.55;;;18.50;1.00;;;;;;5092964;28;20195;-74
2023/04/10 11:25:50;;;;;;;4.65;3.33;;;18.40;1.00;;;;;;5030011;28;20169;-73
2023/04/10 11:28:34;;;;;;;3.70;3.50;;;18.40;1.00;;;;;;5030456;28;20174;-73
2023/04/10 11:31:18;;;;;;;3.63;3.42;;;18.20;99.90;;;;;;5013865;28;20646;-73
2023/04/10 11:33:45;;;;;;;3.70;3.50;;;18.30;99.90;;;;;;5030980;28;20296;-74
2023/04/10 11:36:16;;;;;;;3.30;3.10;;;18.50;21.20;;;;;;5029801;28;20166;-74
2023/04/10 11:38:53;;;;;;;4.68;3.22;;;18.50;1.00;;;;;;5030508;28;20685;-74
2023/04/10 11:41:18;;;;;;;5.75;3.10;;;18.20;1.00;;;;;;5030317;28;20637;-74
2023/04/10 11:43:50;;;;;;;3.90;3.50;;;18.20;1.00;;;;;;5030474;28;20260;-74
2023/04/10 11:46:16;;;;;;;3.33;3.08;;;18.40;1.00;;;;;;5030176;28;20182;-74
2023/04/10 11:48:42;;;;;;;5.32;3.42;;;18.50;1.00;;;;;;5029453;28;20180;-74
2023/04/10 11:51:12;;;;;;;3.40;3.20;;;18.50;1.00;;;;;;5029759;28;20174;-75
2023/04/10 11:53:39;;;;;;;3.53;3.20;;;18.50;1.00;;;;;;5030339;28;20789;-74
2023/04/10 11:56:13;;;;;;;3.50;3.13;;;18.40;1.00;;;;;;5030432;28;20591;-75
2023/04/10 11:58:42;;;;;;;3.42;3.05;;;18.40;99.90;;;;;;5016579;28;20213;-74
2023/04/10 12:01:13;;;;;;;3.17;2.97;;;18.50;99.90;;;;;;5092195;28;20622;-74
2023/04/10 12:03:41;;;;;;;3.33;3.13;;;18.70;1.00;;;;;;5092703;28;20282;-74
2023/04/10 12:06:11;;;;;;;4.10;3.03;;;18.70;1.00;;;;;;5092502;28;20160;-75
2023/04/10 12:08:46;;;;;;;3.33;3.03;;;18.60;11.00;;;;;;5092610;28;20691;-74
2023/04/10 12:11:12;;;;;;;4.28;3.17;;;18.50;60.00;;;;;;5091277;28;20309;-74
2023/04/10 12:13:38;;;;;;;3.92;2.78;;;18.30;59.90;;;;;;5092057;28;20213;-74
2023/04/10 12:16:08;;;;;;;3.30;3.00;;;18.30;98.30;;;;;;5090971;28;20178;-75
2023/04/10 12:18:34;;;;;;;3.13;2.92;;;18.30;79.10;;;;;;5091080;28;20333;-74
2023/04/10 12:21:00;;;;;;;3.55;3.30;;;18.50;64.50;;;;;;5091945;28;20677;-74
2023/04/10 12:23:27;;;;;;;2.83;2.63;;;18.50;1.00;;;;;;5092588;28;20303;-74
2023/04/10 12:26:06;;;;;;;3.20;2.90;;;18.40;1.00;;;;;;5092398;28;20175;-75
2023/04/10 12:28:32;;;;;;;3.28;2.80;;;18.40;1.00;;;;;;5092381;28;20520;-74
2023/04/10 12:31:02;;;;;;;3.20;3.00;;;18.50;1.00;;;;;;5092305;28;20282;-73
2023/04/10 12:33:27;;;;;;;2.97;2.78;;;18.60;1.00;;;;;;5091886;28;20164;-73
2023/04/10 12:35:53;;;;;;;4.05;3.00;;;18.60;1.00;;;;;;5091275;28;20232;-73
2023/04/10 12:38:49;;;;;;;3.65;3.20;;;18.40;1.00;;;;;;5091582;28;20222;-74
2023/04/10 12:41:30;;;;;;;3.35;3.00;;;18.30;1.00;;;;;;5078543;28;20176;-74
2023/04/10 12:44:13;;;;;;;3.17;2.97;;;18.20;99.90;;;;;;5092498;28;20196;-74
2023/04/10 12:46:40;;;;;;;3.60;3.40;;;18.20;99.90;;;;;;5092636;28;20632;-74
2023/04/10 12:49:14;;;;;;;5.10;4.60;;;18.10;1.00;;;;;;5095205;28;20248;-75
2023/04/10 12:51:42;;;;;;;85.95;78.35;;;17.90;1.00;;;;;;5095523;28;20168;-74
2023/04/10 12:54:08;;;;;;;92.70;85.53;;;17.70;95.00;;;;;;5095993;28;20183;-73
2023/04/10 12:56:46;;;;;;;11.53;10.67;;;17.50;90.00;;;;;;5094570;28;20172;-74
2023/04/10 12:59:11;;;;;;;11.60;10.67;;;17.40;99.90;;;;;;5095438;28;20171;-74